Van Horne, Iowa
Current Conditions -  °F | °C
As of 1:35 PM on Thursday 27 Nov 2014 (Local Time) from KVTI Reporting Station
Clear Clear  
Wind Chill:   Ceiling: Unl
Heat Index: 15°   Visibility: 10mi
Dew Point: -1°   Wind: 7mph
Humidity: 48%   Direction: 330°NNW
Pressure: 30.46"   Gusts: 10mph
Location:  42.01°N, 92.09°W
Report Text: KVTI 271935Z AUTO 33006G09KT 10SM CLR M09/M19 A3046 RMK AO2 T10931186
Loading
Personal Weather Stations






























Interactive Weather Map New forecast layout! Learn more

10-Day Weather Forecast

Advertisements
Track Severe Weather on mobile